Huvudsida
METAR-TAF:

METAR-TAF

Flygplatser :

Göteborg-Landvetter Airport

Göteborg-Landvetter, Sverige

latitud: 57-40N, longitud: 012-18E, höjd: 169 m

Aktuellt väderrapport

Denna rapport gjordes för 19 minuter sedan, klockan 04:50 UTC
Vind 12 kt från sydväst
Temperatur 15°C
Fuktighet 82%
Tryck 1009 hPa
Sikt 10 km eller mer
Brutna moln på en höjd av 1500 ft

METAR: ESGG 220450Z 22012KT 9999 BKN015 15/12 Q1009

Tid: 07:09 (05:09 UTC)

Väderprognos

Denna rapport gjordes för 3 timmar och 19 minuter sedan, klockan 01:50 UTC
Prognos gäller från 22 kl. 01 UTC till 22 kl. 24 UTC
Vind 7 kt från syd/sydväst
Sikt 10 km eller mer
Brutna moln på en höjd av 2000 ft
Temporärt
från 22 kl. 01 UTC till 22 kl. 06 UTC
Brutna moln på en höjd av 1200 ft

TAF: ESGG 220150Z 2201/2224 21007KT 9999 BKN020 TEMPO 2201/2206 BKN012

Aktuella väderrapporter och prognoser från 4000 flygplatser (METAR- och TAF-rapporter).

De tillgängliga stationerna syns som gula och röda prickar på kartan.

För musen över prickarna för att se namnen på stationerna.

Klicka sedan för att få väderrapporter och prognoser.

För att ändra kartan: Klicka på de gröna knapparna med ett svart kors på för att zooma in; den gröna knappen med ett streck på för att zooma ut; eller på de gröna pilarna för angränsande kartor.


METAR-TAF: